Time;durP1;ratioP1;P1;durP2;ratioP2;P2;SDS_P1;SDS_P2;PMS_P1;PMS_P2;Temp;Humidity;BMP_temperature;BMP_pressure;BME280_temperature;BME280_humidity;BME280_pressure;Samples;Min_cycle;Max_cycle;Signal;HPM_P1;HPM_P2
2022/07/02 00:01:50;;;;;;;7.13;3.40;;;27.80;94.90;;;;;;5016842;28;20211;-93
2022/07/02 00:04:19;;;;;;;3.47;3.17;;;27.70;95.00;;;;;;4999651;28;20178;-88
2022/07/02 00:06:47;;;;;;;3.70;3.40;;;27.60;95.20;;;;;;4998943;28;20451;-90
2022/07/02 00:09:13;;;;;;;5.50;2.80;;;27.60;95.30;;;;;;4998395;28;20428;-92
2022/07/02 00:11:41;;;;;;;6.80;3.30;;;27.50;95.50;;;;;;4999104;28;20480;-90
2022/07/02 00:14:06;;;;;;;4.33;3.80;;;27.50;96.00;;;;;;4999553;28;20508;-93
2022/07/02 00:16:33;;;;;;;3.53;3.23;;;27.40;95.70;;;;;;4999373;28;20498;-88
2022/07/02 00:18:59;;;;;;;6.70;3.90;;;27.40;95.80;;;;;;5000121;28;20976;-91
2022/07/02 00:21:25;;;;;;;6.33;4.03;;;27.30;96.00;;;;;;5000226;28;20446;-90
2022/07/02 00:23:51;;;;;;;5.20;3.60;;;27.30;96.10;;;;;;4999706;28;20448;-92
2022/07/02 00:26:23;;;;;;;3.67;3.30;;;27.30;96.10;;;;;;4999694;28;20839;-89
2022/07/02 00:28:59;;;;;;;5.03;3.80;;;27.20;96.20;;;;;;5000179;28;20179;-93
2022/07/02 00:31:25;;;;;;;4.37;3.80;;;27.20;96.20;;;;;;5017688;28;20440;-88
2022/07/02 00:33:51;;;;;;;9.63;4.30;;;27.10;96.40;;;;;;5017939;28;20479;-90
2022/07/02 00:36:22;;;;;;;7.70;4.10;;;27.10;96.30;;;;;;5002708;28;20636;-93
2022/07/02 00:38:51;;;;;;;5.10;3.67;;;27.10;96.40;;;;;;5001158;28;20183;-93
2022/07/02 00:41:18;;;;;;;7.43;4.30;;;27.00;96.30;;;;;;5000033;28;20437;-89
2022/07/02 00:43:45;;;;;;;5.93;4.13;;;27.00;96.30;;;;;;5003242;28;20535;-90
2022/07/02 00:46:13;;;;;;;4.40;4.00;;;27.00;96.40;;;;;;4998565;28;20440;-89
2022/07/02 00:48:39;;;;;;;7.70;4.17;;;27.00;96.40;;;;;;4998452;28;20820;-89
2022/07/02 00:51:05;;;;;;;4.77;4.27;;;27.00;96.30;;;;;;5014063;28;20464;-93
2022/07/02 00:53:30;;;;;;;4.10;3.43;;;27.00;96.30;;;;;;5014920;28;20491;-89
2022/07/02 00:55:57;;;;;;;4.30;3.90;;;27.00;96.30;;;;;;5014886;28;20190;-93
2022/07/02 00:58:23;;;;;;;6.63;3.60;;;27.00;96.50;;;;;;5014759;28;20833;-90
2022/07/02 01:00:49;;;;;;;4.10;3.70;;;27.00;96.30;;;;;;5015165;28;20909;-89
2022/07/02 01:03:20;;;;;;;4.27;3.93;;;27.00;96.30;;;;;;5013615;28;20441;-93
2022/07/02 01:05:49;;;;;;;4.60;3.47;;;26.90;96.20;;;;;;5014128;28;20278;-93
2022/07/02 01:11:04;;;;;;;5.47;3.67;;;26.90;96.10;;;;;;5014937;28;20435;-93
2022/07/02 01:13:33;;;;;;;5.50;3.57;;;26.90;96.20;;;;;;5013636;28;20460;-88
2022/07/02 01:16:00;;;;;;;5.20;3.90;;;26.90;96.20;;;;;;5013985;28;20195;-89
2022/07/02 01:18:25;;;;;;;4.77;3.60;;;26.90;96.30;;;;;;5013948;28;20490;-89
2022/07/02 01:20:51;;;;;;;7.10;3.67;;;26.90;96.40;;;;;;5015502;28;20527;-93
2022/07/02 01:23:17;;;;;;;5.20;4.10;;;26.90;96.40;;;;;;5015441;28;20223;-93
2022/07/02 01:25:53;;;;;;;4.03;3.43;;;26.90;96.70;;;;;;5014170;28;20187;-89
2022/07/02 01:28:20;;;;;;;3.73;3.43;;;26.90;96.40;;;;;;5013957;28;20199;-91
2022/07/02 01:30:49;;;;;;;3.97;3.60;;;26.90;96.70;;;;;;5014155;28;20467;-89
2022/07/02 01:33:15;;;;;;;4.00;3.60;;;26.90;96.50;;;;;;5015344;28;20472;-89
2022/07/02 01:35:41;;;;;;;3.87;3.53;;;26.90;96.50;;;;;;5015682;28;20483;-93
2022/07/02 01:38:06;;;;;;;4.40;3.80;;;26.90;96.50;;;;;;5017247;28;20659;-89
2022/07/02 01:40:32;;;;;;;9.70;4.10;;;26.90;96.60;;;;;;5030497;28;20242;-93
2022/07/02 01:42:57;;;;;;;4.30;3.83;;;26.90;96.60;;;;;;5020361;28;20241;-89
2022/07/02 01:45:23;;;;;;;5.90;3.40;;;26.80;96.50;;;;;;5026613;28;20194;-89
2022/07/02 01:47:49;;;;;;;9.73;3.90;;;26.80;96.60;;;;;;5030861;28;20198;-89
2022/07/02 01:50:14;;;;;;;3.80;3.50;;;26.80;97.00;;;;;;5028238;28;20302;-91
2022/07/02 01:52:40;;;;;;;5.17;3.73;;;26.70;96.70;;;;;;5018984;28;20202;-89
2022/07/02 01:55:07;;;;;;;3.67;3.33;;;26.60;96.70;;;;;;5020855;28;20191;-92
2022/07/02 01:57:35;;;;;;;11.13;3.60;;;26.60;96.80;;;;;;5013324;28;20451;-93
2022/07/02 02:00:07;;;;;;;5.57;3.30;;;26.50;96.90;;;;;;5013197;28;20432;-93
2022/07/02 02:02:33;;;;;;;9.70;3.20;;;26.50;97.00;;;;;;5014287;28;20531;-90
2022/07/02 02:04:58;;;;;;;3.67;3.37;;;26.50;97.10;;;;;;5014997;28;20489;-89
2022/07/02 02:07:25;;;;;;;3.50;3.20;;;26.40;97.10;;;;;;5014390;28;20218;-92
2022/07/02 02:09:50;;;;;;;3.20;2.90;;;26.40;97.20;;;;;;5014908;28;20621;-93
2022/07/02 02:12:16;;;;;;;5.43;3.30;;;26.30;97.20;;;;;;5014062;28;20439;-92
2022/07/02 02:14:42;;;;;;;3.33;3.03;;;26.30;97.20;;;;;;5013214;28;20261;-93
2022/07/02 02:17:07;;;;;;;4.90;3.07;;;26.30;97.30;;;;;;5014035;28;20195;-89
2022/07/02 02:19:33;;;;;;;3.70;3.37;;;26.30;97.30;;;;;;5013065;28;20171;-93
2022/07/02 02:21:59;;;;;;;2.67;2.30;;;26.20;97.30;;;;;;5012709;28;20195;-89
2022/07/02 02:24:25;;;;;;;3.10;2.80;;;26.20;97.30;;;;;;5012664;28;20510;-88
2022/07/02 02:26:51;;;;;;;4.83;2.47;;;26.20;97.40;;;;;;5012772;28;20203;-90
2022/07/02 02:29:16;;;;;;;3.27;2.80;;;26.20;97.50;;;;;;5014181;28;20175;-88
2022/07/02 02:31:42;;;;;;;3.53;2.10;;;26.10;97.40;;;;;;5016365;28;20446;-93
2022/07/02 02:34:08;;;;;;;2.60;2.10;;;26.10;97.50;;;;;;5017445;28;20206;-91
2022/07/02 02:36:33;;;;;;;2.40;2.20;;;26.10;97.50;;;;;;5016147;28;20223;-93
2022/07/02 02:38:59;;;;;;;5.53;2.87;;;26.10;97.60;;;;;;5016327;28;20179;-88
2022/07/02 02:41:53;;;;;;;2.77;2.40;;;26.10;97.70;;;;;;5017307;28;20201;-89
2022/07/02 02:44:18;;;;;;;2.50;2.20;;;26.00;97.70;;;;;;5017832;28;20178;-92
2022/07/02 02:46:44;;;;;;;3.50;3.20;;;26.00;97.80;;;;;;5017372;28;20818;-89
2022/07/02 02:49:09;;;;;;;2.23;1.90;;;26.00;97.70;;;;;;5017984;28;20226;-90
2022/07/02 02:51:35;;;;;;;2.67;2.10;;;26.00;97.80;;;;;;5001216;28;20217;-92
2022/07/02 02:54:00;;;;;;;2.30;2.13;;;26.00;97.90;;;;;;5018052;28;20206;-89
2022/07/02 02:56:26;;;;;;;3.17;2.53;;;26.00;98.00;;;;;;5017992;28;20210;-93
2022/07/02 02:58:52;;;;;;;2.17;1.97;;;25.90;98.00;;;;;;5000153;28;20277;-90
2022/07/02 03:01:17;;;;;;;5.47;2.90;;;26.00;98.10;;;;;;5002304;28;20305;-93
2022/07/02 03:03:43;;;;;;;3.60;2.80;;;26.00;98.10;;;;;;5001143;28;20177;-88
2022/07/02 03:06:08;;;;;;;2.37;2.17;;;26.00;98.10;;;;;;5002243;28;20192;-90
2022/07/02 03:08:34;;;;;;;5.00;2.90;;;26.00;98.00;;;;;;5019356;28;20198;-91
2022/07/02 03:10:59;;;;;;;2.40;2.20;;;26.00;98.10;;;;;;5018847;28;20232;-90
2022/07/02 03:13:25;;;;;;;2.90;2.40;;;25.90;98.10;;;;;;5019230;28;20218;-90
2022/07/02 03:15:52;;;;;;;2.77;2.43;;;25.90;98.20;;;;;;5002128;28;20190;-90
2022/07/02 03:18:18;;;;;;;3.13;2.60;;;25.90;98.20;;;;;;5018757;28;20190;-93
2022/07/02 03:20:44;;;;;;;2.50;2.30;;;25.90;98.20;;;;;;5018906;28;20486;-93
2022/07/02 03:23:09;;;;;;;3.87;3.00;;;25.90;98.30;;;;;;5001581;28;20524;-88
2022/07/02 03:25:35;;;;;;;3.20;2.37;;;25.90;98.30;;;;;;5001934;28;20186;-93
2022/07/02 03:28:01;;;;;;;2.97;2.67;;;25.90;98.30;;;;;;5018544;28;20194;-93
2022/07/02 03:30:26;;;;;;;2.50;2.30;;;25.80;98.30;;;;;;5000967;28;20236;-92
2022/07/02 03:32:52;;;;;;;3.23;2.50;;;25.80;98.50;;;;;;5018468;28;20233;-93
2022/07/02 03:35:18;;;;;;;2.53;2.20;;;25.80;98.50;;;;;;5018395;28;20430;-90
2022/07/02 03:37:44;;;;;;;2.20;2.10;;;25.70;98.50;;;;;;5018277;28;20205;-92
2022/07/02 03:40:10;;;;;;;2.63;2.40;;;25.70;98.60;;;;;;5018356;28;20218;-88
2022/07/02 03:42:36;;;;;;;2.87;2.57;;;25.70;98.70;;;;;;4999517;28;20226;-89
2022/07/02 03:45:02;;;;;;;2.40;2.20;;;25.60;98.70;;;;;;5003783;28;20451;-90
2022/07/02 03:47:28;;;;;;;3.10;2.23;;;25.60;98.80;;;;;;5016411;28;20459;-90
2022/07/02 03:49:53;;;;;;;2.47;2.23;;;25.60;99.30;;;;;;5010412;28;20467;-90
2022/07/02 03:52:19;;;;;;;3.23;2.93;;;25.60;99.30;;;;;;5016032;28;20194;-90
2022/07/02 03:54:45;;;;;;;2.87;2.57;;;25.60;99.10;;;;;;5017611;28;20236;-92
2022/07/02 03:57:10;;;;;;;2.67;2.40;;;25.60;99.20;;;;;;5016477;28;20201;-93
2022/07/02 03:59:36;;;;;;;4.67;2.50;;;25.60;99.20;;;;;;5015919;28;20226;-90
2022/07/02 04:02:02;;;;;;;2.67;2.30;;;25.60;99.20;;;;;;5015369;28;20203;-93
2022/07/02 04:04:27;;;;;;;2.10;1.90;;;25.60;99.30;;;;;;5015589;28;20182;-88
2022/07/02 04:06:53;;;;;;;2.57;2.37;;;25.60;99.30;;;;;;5016827;28;20206;-89
2022/07/02 04:09:19;;;;;;;4.17;2.30;;;25.50;99.60;;;;;;5016404;28;20182;-92
2022/07/02 04:11:44;;;;;;;2.50;2.30;;;25.50;99.20;;;;;;5016440;28;20558;-93
2022/07/02 04:14:10;;;;;;;3.50;2.60;;;25.50;99.20;;;;;;5017063;28;20209;-90
2022/07/02 04:16:35;;;;;;;2.40;2.20;;;25.40;99.30;;;;;;5016437;28;20222;-92
2022/07/02 04:19:01;;;;;;;2.67;2.47;;;25.40;99.30;;;;;;5016240;28;20181;-89
2022/07/02 04:21:27;;;;;;;1.87;1.70;;;25.30;99.40;;;;;;5016037;28;20208;-89
2022/07/02 04:23:52;;;;;;;2.83;2.03;;;25.30;99.40;;;;;;5016775;28;20260;-88
2022/07/02 04:26:18;;;;;;;1.70;1.60;;;25.30;99.50;;;;;;5015968;28;20193;-92
2022/07/02 04:28:44;;;;;;;2.47;2.10;;;25.20;99.50;;;;;;5015492;28;20218;-90
2022/07/02 04:31:09;;;;;;;2.00;1.80;;;25.20;99.60;;;;;;5015779;28;20643;-89
2022/07/02 04:33:35;;;;;;;2.47;2.10;;;25.10;99.60;;;;;;5016168;28;20225;-88
2022/07/02 04:36:01;;;;;;;2.13;1.83;;;25.10;99.70;;;;;;5015978;28;20196;-90
2022/07/02 04:38:27;;;;;;;4.43;2.20;;;25.10;99.80;;;;;;5016074;28;20197;-92
2022/07/02 04:40:52;;;;;;;4.43;1.93;;;25.10;99.80;;;;;;5016040;28;20454;-93
2022/07/02 04:43:18;;;;;;;4.13;2.00;;;25.00;99.80;;;;;;5016028;28;20255;-91
2022/07/02 04:45:44;;;;;;;2.90;2.20;;;25.00;99.90;;;;;;5016118;28;20283;-89
2022/07/02 04:48:09;;;;;;;1.70;1.60;;;24.90;99.90;;;;;;5021577;28;20211;-89
2022/07/02 04:50:35;;;;;;;1.60;1.40;;;24.90;99.90;;;;;;4997585;28;20190;-90
2022/07/02 04:53:01;;;;;;;2.60;2.37;;;24.90;99.90;;;;;;4997339;28;20212;-93
2022/07/02 04:55:26;;;;;;;2.90;1.67;;;24.90;99.90;;;;;;4997122;28;20187;-88
2022/07/02 04:57:52;;;;;;;1.53;1.43;;;24.90;99.90;;;;;;4997115;28;20263;-90
2022/07/02 05:00:17;;;;;;;2.40;2.20;;;24.80;99.90;;;;;;4997365;28;20644;-89
2022/07/02 05:02:43;;;;;;;2.63;2.30;;;24.80;99.90;;;;;;4997093;28;20239;-92
2022/07/02 05:05:09;;;;;;;2.20;2.00;;;24.80;99.90;;;;;;4997527;28;20189;-89
2022/07/02 05:07:35;;;;;;;1.70;1.60;;;24.80;99.90;;;;;;4997084;28;20232;-93
2022/07/02 05:10:01;;;;;;;2.53;1.90;;;24.70;99.90;;;;;;5015349;28;20258;-89
2022/07/02 05:12:26;;;;;;;3.03;2.40;;;24.70;99.90;;;;;;5016057;28;20207;-88
2022/07/02 05:14:52;;;;;;;2.40;1.50;;;24.70;99.90;;;;;;5016035;28;20478;-92
2022/07/02 05:17:18;;;;;;;2.70;1.70;;;24.60;99.90;;;;;;4998575;28;20200;-90
2022/07/02 05:19:44;;;;;;;1.57;1.47;;;24.60;99.90;;;;;;4999317;28;20212;-88
2022/07/02 05:22:10;;;;;;;2.27;1.83;;;24.60;99.90;;;;;;4998939;28;20204;-89
2022/07/02 05:24:35;;;;;;;1.53;1.43;;;24.60;99.90;;;;;;4999287;28;20592;-93
2022/07/02 05:27:01;;;;;;;2.40;1.40;;;24.60;99.90;;;;;;5016210;28;20434;-89
2022/07/02 05:29:27;;;;;;;4.07;2.23;;;24.60;99.90;;;;;;4998600;28;20181;-93
2022/07/02 05:31:53;;;;;;;2.37;1.70;;;24.60;99.90;;;;;;5016488;28;20242;-91
2022/07/02 05:34:18;;;;;;;1.60;1.50;;;24.60;99.90;;;;;;5016428;28;20209;-89
2022/07/02 05:36:44;;;;;;;1.77;1.63;;;24.60;99.90;;;;;;4998775;28;20577;-88
2022/07/02 05:39:09;;;;;;;2.60;2.13;;;24.70;99.90;;;;;;4998809;28;20189;-89
2022/07/02 05:41:35;;;;;;;4.30;1.83;;;24.70;99.90;;;;;;5016654;28;20211;-93
2022/07/02 05:44:01;;;;;;;3.30;1.83;;;24.70;99.90;;;;;;4999096;28;20751;-90
2022/07/02 05:46:26;;;;;;;2.23;1.63;;;24.60;99.90;;;;;;4999432;28;20262;-94
2022/07/02 05:48:52;;;;;;;2.30;2.07;;;24.60;99.90;;;;;;4999487;28;20242;-89
2022/07/02 05:51:18;;;;;;;1.60;1.50;;;24.60;99.90;;;;;;4999689;28;20189;-93
2022/07/02 05:53:43;;;;;;;2.00;1.70;;;24.70;99.90;;;;;;5024572;28;20551;-92
2022/07/02 05:56:09;;;;;;;2.20;1.77;;;24.70;99.90;;;;;;5001792;28;20201;-88
2022/07/02 05:58:34;;;;;;;2.80;1.70;;;24.80;99.90;;;;;;5000643;28;20189;-89
2022/07/02 06:01:00;;;;;;;2.17;1.47;;;24.80;99.90;;;;;;5014213;28;20212;-90
2022/07/02 06:03:26;;;;;;;2.80;1.80;;;24.80;99.90;;;;;;5015502;28;20204;-89
2022/07/02 06:08:39;;;;;;;2.10;1.53;;;24.90;99.90;;;;;;5019332;28;20212;-89
2022/07/02 06:11:05;;;;;;;5.00;1.80;;;24.90;99.90;;;;;;5019111;28;20419;-93
2022/07/02 06:13:31;;;;;;;1.70;1.60;;;25.00;99.90;;;;;;5018471;28;20469;-89
2022/07/02 06:15:56;;;;;;;2.93;1.77;;;25.00;99.90;;;;;;5017934;28;20868;-89
2022/07/02 06:18:22;;;;;;;1.30;1.20;;;25.10;99.90;;;;;;5000480;28;20228;-89
2022/07/02 06:20:48;;;;;;;1.80;1.70;;;25.10;99.90;;;;;;5018608;28;20224;-93
2022/07/02 06:23:13;;;;;;;1.57;1.47;;;25.10;99.90;;;;;;5000696;28;20260;-93
2022/07/02 06:25:39;;;;;;;1.83;1.73;;;25.10;99.90;;;;;;5000406;28;20197;-93
2022/07/02 06:28:05;;;;;;;2.23;2.03;;;25.10;99.90;;;;;;5017608;28;20193;-89
2022/07/02 06:30:30;;;;;;;2.60;2.30;;;25.00;99.90;;;;;;5000051;28;20190;-88
2022/07/02 06:32:56;;;;;;;3.20;1.90;;;25.00;99.90;;;;;;5017341;28;20239;-89
2022/07/02 06:35:21;;;;;;;3.57;1.70;;;25.00;99.90;;;;;;5000436;28;20186;-93
2022/07/02 06:37:47;;;;;;;1.57;1.47;;;25.10;99.90;;;;;;5000214;28;20196;-88
2022/07/02 06:40:13;;;;;;;3.10;2.07;;;25.10;99.90;;;;;;5000604;28;20186;-92
2022/07/02 06:42:38;;;;;;;2.47;1.77;;;25.20;99.90;;;;;;5000989;28;20203;-93
2022/07/02 06:45:05;;;;;;;2.30;2.10;;;25.20;99.90;;;;;;5000908;28;20240;-91
2022/07/02 06:47:32;;;;;;;2.67;1.70;;;25.20;99.90;;;;;;5018166;28;20194;-88
2022/07/02 06:50:00;;;;;;;2.00;1.90;;;25.20;99.90;;;;;;5012886;28;20473;-89
2022/07/02 06:52:26;;;;;;;2.00;1.90;;;25.30;99.90;;;;;;5018593;28;20444;-89
2022/07/02 06:54:51;;;;;;;2.80;1.87;;;25.30;99.90;;;;;;5020187;28;20964;-93
2022/07/02 06:57:17;;;;;;;1.93;1.83;;;25.30;99.90;;;;;;5023766;28;20866;-93
2022/07/02 06:59:43;;;;;;;3.33;2.20;;;25.40;99.90;;;;;;5016977;28;20634;-93
2022/07/02 07:02:09;;;;;;;2.23;2.03;;;25.50;99.90;;;;;;5015725;28;20684;-89
2022/07/02 07:04:35;;;;;;;3.00;2.13;;;25.50;99.90;;;;;;5016900;28;20308;-91
2022/07/02 07:07:05;;;;;;;2.43;2.10;;;25.60;99.90;;;;;;5015605;28;20433;-90
2022/07/02 07:09:34;;;;;;;2.53;2.20;;;25.70;99.90;;;;;;5016818;28;20424;-93
2022/07/02 07:12:00;;;;;;;2.30;2.10;;;25.70;99.90;;;;;;5015519;28;20435;-93
2022/07/02 07:14:26;;;;;;;2.00;1.80;;;25.80;99.90;;;;;;5015552;28;20495;-93
2022/07/02 07:16:51;;;;;;;2.70;2.50;;;25.90;99.90;;;;;;5015727;28;20436;-93
2022/07/02 07:19:17;;;;;;;2.50;2.30;;;25.90;99.90;;;;;;5016115;28;20228;-90
2022/07/02 07:21:43;;;;;;;3.00;2.20;;;26.00;99.90;;;;;;5017666;28;20664;-90
2022/07/02 07:24:09;;;;;;;4.53;2.57;;;26.00;99.90;;;;;;5016081;28;20186;-90
2022/07/02 07:26:36;;;;;;;1.90;1.80;;;26.10;99.90;;;;;;5017672;28;20237;-88
2022/07/02 07:29:03;;;;;;;2.70;2.50;;;26.10;99.90;;;;;;5017797;28;20419;-89
2022/07/02 07:31:28;;;;;;;4.77;2.40;;;26.20;99.90;;;;;;5016303;28;20550;-93
2022/07/02 07:33:57;;;;;;;2.40;2.20;;;26.20;99.90;;;;;;5015866;28;20528;-88
2022/07/02 07:36:24;;;;;;;2.03;1.90;;;26.30;99.90;;;;;;5015694;28;20214;-93
2022/07/02 07:38:51;;;;;;;3.77;3.37;;;26.20;99.90;;;;;;5017008;28;20428;-89
2022/07/02 07:41:18;;;;;;;3.03;2.80;;;26.20;99.90;;;;;;5017776;28;20431;-93
2022/07/02 07:43:44;;;;;;;3.70;2.40;;;26.20;99.90;;;;;;5017992;28;20408;-89
2022/07/02 07:46:10;;;;;;;2.30;2.10;;;26.20;99.90;;;;;;5017491;28;20935;-90
2022/07/02 07:48:37;;;;;;;2.40;1.90;;;26.20;99.90;;;;;;5011695;28;20293;-88
2022/07/02 07:51:02;;;;;;;3.40;2.03;;;26.10;99.90;;;;;;4980705;28;20227;-93
2022/07/02 07:53:28;;;;;;;2.43;2.23;;;26.10;99.90;;;;;;4981072;28;21044;-90
2022/07/02 07:55:54;;;;;;;3.10;2.30;;;26.00;99.90;;;;;;4999337;28;20719;-89
2022/07/02 07:58:20;;;;;;;2.30;2.00;;;26.00;99.90;;;;;;4998328;28;20237;-90
2022/07/02 08:00:47;;;;;;;2.53;2.33;;;25.90;99.90;;;;;;4980228;28;20422;-88
2022/07/02 08:03:17;;;;;;;2.77;2.43;;;25.90;99.90;;;;;;4979079;28;20290;-93
2022/07/02 08:05:46;;;;;;;2.47;2.27;;;25.90;99.90;;;;;;4978639;28;20443;-92
2022/07/02 08:08:14;;;;;;;3.40;2.40;;;25.80;99.90;;;;;;4995952;28;20789;-92
2022/07/02 08:10:41;;;;;;;2.50;2.13;;;25.80;99.90;;;;;;4978794;28;20433;-91
2022/07/02 08:13:07;;;;;;;2.50;2.00;;;25.80;99.90;;;;;;4996510;28;20461;-92
2022/07/02 08:15:33;;;;;;;2.53;2.33;;;25.80;99.90;;;;;;4995974;28;20435;-92
2022/07/02 08:17:59;;;;;;;6.57;2.30;;;25.80;99.90;;;;;;4998714;28;20206;-89
2022/07/02 08:20:25;;;;;;;3.53;2.60;;;25.80;99.90;;;;;;4988215;28;20944;-88
2022/07/02 08:22:51;;;;;;;4.13;2.63;;;25.80;99.90;;;;;;4999695;28;20225;-89
2022/07/02 08:25:18;;;;;;;6.20;2.70;;;25.80;99.90;;;;;;4985503;28;20187;-90
2022/07/02 08:27:44;;;;;;;3.90;2.50;;;25.70;99.90;;;;;;4997234;28;20456;-91
2022/07/02 08:30:11;;;;;;;3.60;3.00;;;25.70;99.90;;;;;;4986743;28;20942;-90
2022/07/02 08:32:37;;;;;;;4.03;2.80;;;25.70;99.90;;;;;;4999276;28;20956;-91
2022/07/02 08:35:04;;;;;;;3.20;2.90;;;25.70;99.90;;;;;;5001285;28;20476;-88
2022/07/02 08:37:30;;;;;;;3.23;2.20;;;25.60;99.90;;;;;;4976187;28;20437;-92
2022/07/02 08:39:56;;;;;;;3.20;2.60;;;25.50;99.90;;;;;;4993893;28;20921;-91
2022/07/02 08:42:27;;;;;;;4.30;3.07;;;25.40;99.90;;;;;;4976166;28;20472;-92
2022/07/02 08:44:54;;;;;;;3.00;2.70;;;25.40;99.90;;;;;;4977145;28;20263;-91
2022/07/02 08:47:21;;;;;;;2.17;1.97;;;25.30;99.90;;;;;;4977137;28;20784;-93
2022/07/02 08:49:47;;;;;;;3.80;2.47;;;25.30;99.90;;;;;;5007517;28;20459;-88
2022/07/02 08:52:18;;;;;;;2.70;2.50;;;25.20;99.90;;;;;;4997505;28;20585;-91
2022/07/02 08:54:45;;;;;;;4.33;3.30;;;25.20;99.90;;;;;;4997713;28;20471;-93
2022/07/02 08:57:12;;;;;;;4.60;2.90;;;25.20;99.90;;;;;;4997759;28;20451;-88
2022/07/02 08:59:38;;;;;;;3.20;2.63;;;25.30;99.90;;;;;;4998319;28;20415;-88
2022/07/02 09:02:05;;;;;;;3.93;2.83;;;25.30;99.90;;;;;;5016640;28;20447;-88
2022/07/02 09:04:33;;;;;;;2.80;2.60;;;25.30;99.90;;;;;;5016708;28;20443;-90
2022/07/02 09:07:02;;;;;;;4.07;3.23;;;25.30;99.90;;;;;;4999949;28;20952;-92
2022/07/02 09:09:29;;;;;;;4.03;3.13;;;25.30;99.90;;;;;;4999338;28;20419;-91
2022/07/02 09:11:56;;;;;;;4.33;3.03;;;25.30;99.90;;;;;;4999247;28;20447;-88
2022/07/02 09:14:22;;;;;;;3.87;3.27;;;25.30;99.90;;;;;;4999209;28;20570;-90
2022/07/02 09:16:49;;;;;;;4.60;3.17;;;25.40;99.90;;;;;;5016349;28;20951;-89
2022/07/02 09:19:16;;;;;;;3.63;3.13;;;25.40;99.90;;;;;;4999728;28;20507;-88
2022/07/02 09:21:52;;;;;;;5.50;2.70;;;25.40;99.90;;;;;;5017293;28;20463;-90
2022/07/02 09:24:35;;;;;;;3.10;2.80;;;25.40;99.90;;;;;;5008190;28;20444;-88
2022/07/02 09:27:09;;;;;;;7.40;3.57;;;25.40;99.90;;;;;;5003941;28;20451;-95
2022/07/02 09:29:55;;;;;;;3.20;3.00;;;25.50;99.90;;;;;;5001077;28;20756;-88
2022/07/02 09:32:21;;;;;;;4.13;3.63;;;25.40;99.90;;;;;;5014963;28;20419;-89
2022/07/02 09:34:50;;;;;;;3.10;2.77;;;25.50;99.90;;;;;;5014302;28;20475;-88
2022/07/02 09:37:17;;;;;;;4.03;3.63;;;25.50;99.90;;;;;;5006790;28;20440;-94
2022/07/02 09:39:43;;;;;;;4.57;4.10;;;25.50;99.90;;;;;;5016263;28;20490;-93
2022/07/02 09:42:33;;;;;;;3.80;3.50;;;25.50;99.90;;;;;;5018917;28;20423;-93
2022/07/02 09:45:01;;;;;;;4.80;3.80;;;25.50;99.90;;;;;;5002896;28;20424;-93
2022/07/02 09:47:36;;;;;;;3.43;3.07;;;25.60;99.90;;;;;;5003070;28;20494;-88
2022/07/02 09:50:04;;;;;;;3.30;3.00;;;25.50;99.90;;;;;;5015599;28;20482;-92
2022/07/02 09:52:31;;;;;;;5.40;3.77;;;25.40;99.90;;;;;;5018262;28;20443;-93
2022/07/02 09:54:57;;;;;;;6.83;4.03;;;25.20;99.90;;;;;;5017190;28;20486;-92
2022/07/02 09:57:22;;;;;;;5.30;3.93;;;25.20;99.90;;;;;;5018248;28;20943;-92
2022/07/02 09:59:48;;;;;;;4.33;3.73;;;25.20;99.90;;;;;;5016953;28;20442;-90
2022/07/02 10:02:25;;;;;;;6.60;3.80;;;25.20;99.90;;;;;;5016661;28;20198;-90
2022/07/02 10:04:52;;;;;;;4.10;3.73;;;25.20;99.90;;;;;;5017519;28;20462;-86
2022/07/02 10:07:22;;;;;;;4.10;3.70;;;25.20;99.90;;;;;;5016521;28;20982;-90
2022/07/02 10:09:49;;;;;;;5.10;4.60;;;25.30;99.90;;;;;;5017637;28;20429;-88
2022/07/02 10:12:16;;;;;;;5.40;4.43;;;25.40;99.90;;;;;;5015974;28;20439;-88
2022/07/02 10:14:47;;;;;;;4.50;3.90;;;25.50;99.90;;;;;;5016814;28;20474;-89
2022/07/02 10:17:14;;;;;;;4.50;3.90;;;25.60;99.90;;;;;;5017828;28;20493;-90
2022/07/02 10:19:40;;;;;;;4.87;4.00;;;25.80;99.90;;;;;;5017171;28;20411;-89
2022/07/02 10:22:07;;;;;;;6.33;4.47;;;25.90;99.90;;;;;;5017408;28;20440;-88
2022/07/02 10:24:33;;;;;;;4.63;3.80;;;26.00;99.90;;;;;;5019440;28;20408;-90
2022/07/02 10:27:00;;;;;;;4.80;3.67;;;26.10;99.90;;;;;;5024510;28;20459;-90
2022/07/02 10:29:27;;;;;;;4.33;3.87;;;26.30;99.90;;;;;;5017349;28;20439;-90
2022/07/02 10:32:17;;;;;;;5.37;4.27;;;26.40;99.90;;;;;;5015725;28;20980;-88
2022/07/02 10:35:09;;;;;;;6.03;3.90;;;26.50;99.90;;;;;;4999741;28;20472;-89
2022/07/02 10:37:42;;;;;;;5.07;4.20;;;26.60;99.90;;;;;;5016070;28;20535;-93
2022/07/02 10:40:09;;;;;;;5.13;4.50;;;26.70;99.90;;;;;;5017412;28;20498;-89
2022/07/02 10:42:48;;;;;;;23.97;6.10;;;26.90;99.90;;;;;;5024163;28;20444;-89
2022/07/02 10:45:19;;;;;;;4.83;4.20;;;27.00;99.90;;;;;;5015769;28;20432;-91
2022/07/02 10:48:05;;;;;;;8.73;4.17;;;27.10;99.90;;;;;;5015650;28;20466;-92
2022/07/02 10:50:38;;;;;;;5.80;3.90;;;27.30;99.90;;;;;;4980423;28;20485;-90
2022/07/02 10:53:17;;;;;;;4.77;4.27;;;27.40;99.90;;;;;;4980226;28;20443;-88
2022/07/02 10:55:50;;;;;;;5.20;4.50;;;27.50;99.90;;;;;;4999263;28;21039;-92
2022/07/02 10:58:35;;;;;;;6.03;4.23;;;27.50;99.90;;;;;;4999027;28;20430;-94
2022/07/02 11:01:11;;;;;;;5.50;4.40;;;27.60;99.90;;;;;;4986053;28;20608;-91
2022/07/02 11:03:38;;;;;;;7.33;4.03;;;27.70;99.90;;;;;;4980360;28;20420;-90
2022/07/02 11:06:19;;;;;;;5.80;4.20;;;27.70;99.90;;;;;;4979762;28;20934;-90
2022/07/02 11:08:49;;;;;;;4.33;3.93;;;27.80;99.90;;;;;;4979603;28;20406;-94
2022/07/02 11:11:17;;;;;;;4.30;3.83;;;27.90;99.90;;;;;;4998126;28;20433;-91
2022/07/02 11:14:09;;;;;;;7.10;4.60;;;28.00;99.90;;;;;;5004295;28;20471;-92
2022/07/02 11:16:38;;;;;;;4.53;3.90;;;28.10;99.90;;;;;;4979275;28;20879;-90
2022/07/02 11:19:16;;;;;;;4.63;4.10;;;28.00;99.90;;;;;;4996690;28;20413;-90
2022/07/02 11:21:42;;;;;;;4.47;4.07;;;28.10;99.90;;;;;;4979019;28;21235;-89
2022/07/02 11:24:10;;;;;;;4.90;4.00;;;28.20;99.90;;;;;;4979273;28;20414;-87
2022/07/02 11:26:41;;;;;;;4.43;4.03;;;28.30;99.90;;;;;;4978847;28;20453;-88
2022/07/02 11:29:06;;;;;;;4.47;4.00;;;28.30;99.90;;;;;;4982213;28;20486;-88
2022/07/02 11:31:36;;;;;;;4.90;4.30;;;28.40;99.90;;;;;;4980923;28;20464;-89
2022/07/02 11:34:02;;;;;;;3.83;3.53;;;28.40;99.90;;;;;;4996056;28;20216;-89
2022/07/02 11:36:28;;;;;;;7.07;3.73;;;28.50;99.90;;;;;;4996531;28;20528;-89
2022/07/02 11:38:55;;;;;;;4.50;4.03;;;28.60;99.90;;;;;;4978753;28;20784;-87
2022/07/02 11:41:22;;;;;;;4.40;4.07;;;28.60;99.90;;;;;;4979469;28;20427;-91
2022/07/02 11:43:53;;;;;;;5.97;5.37;;;28.60;99.90;;;;;;5004794;28;20448;-88
2022/07/02 11:46:24;;;;;;;4.30;4.00;;;28.60;99.90;;;;;;4996060;28;20483;-92
2022/07/02 11:48:51;;;;;;;5.60;5.10;;;28.70;99.90;;;;;;4986257;28;20554;-90
2022/07/02 11:51:21;;;;;;;5.73;5.23;;;28.80;99.90;;;;;;5015718;28;20454;-90
2022/07/02 11:54:01;;;;;;;4.73;4.33;;;28.90;99.90;;;;;;5015009;28;20501;-89
2022/07/02 11:56:29;;;;;;;8.70;3.87;;;28.90;99.90;;;;;;5015211;28;20595;-88
2022/07/02 11:58:55;;;;;;;7.07;5.27;;;28.90;99.90;;;;;;5016226;28;20402;-90
2022/07/02 12:01:24;;;;;;;5.13;4.60;;;29.00;99.90;;;;;;5013093;28;20434;-90
2022/07/02 12:03:52;;;;;;;4.93;4.43;;;29.20;99.90;;;;;;5028920;28;20416;-93
2022/07/02 12:06:18;;;;;;;5.40;4.90;;;29.30;99.90;;;;;;5014421;28;20439;-90
2022/07/02 12:08:44;;;;;;;4.97;4.47;;;29.30;99.90;;;;;;5014477;28;20491;-91
2022/07/02 12:11:20;;;;;;;5.63;4.70;;;29.40;99.90;;;;;;5019667;28;20481;-93
2022/07/02 12:13:46;;;;;;;4.90;4.40;;;29.40;99.90;;;;;;5015142;28;20216;-90
2022/07/02 12:16:18;;;;;;;6.70;5.00;;;29.40;99.90;;;;;;5014634;28;20432;-89
2022/07/02 12:18:44;;;;;;;5.97;4.73;;;29.40;99.90;;;;;;5015909;28;20408;-90
2022/07/02 12:21:16;;;;;;;5.87;5.20;;;29.50;99.90;;;;;;5016235;28;20442;-91
2022/07/02 12:23:51;;;;;;;7.13;3.83;;;29.60;99.90;;;;;;5016728;28;20507;-91
2022/07/02 12:26:20;;;;;;;5.93;4.63;;;29.70;99.90;;;;;;5026266;28;20444;-90
2022/07/02 12:31:43;;;;;;;6.20;5.33;;;29.70;99.90;;;;;;5014130;28;20537;-91
2022/07/02 12:34:08;;;;;;;7.07;5.27;;;29.80;99.60;;;;;;5016818;28;20457;-91
2022/07/02 12:36:48;;;;;;;4.73;4.23;;;29.80;99.90;;;;;;5015051;28;20449;-92
2022/07/02 12:39:14;;;;;;;6.97;5.20;;;29.80;98.90;;;;;;5016491;28;20184;-91
2022/07/02 12:41:40;;;;;;;6.63;5.17;;;29.90;99.40;;;;;;5022527;28;20450;-90
2022/07/02 12:44:14;;;;;;;4.57;4.13;;;30.00;99.90;;;;;;5013114;28;20440;-90
2022/07/02 12:46:44;;;;;;;6.30;5.70;;;30.00;98.30;;;;;;5014603;28;20445;-90
2022/07/02 12:49:19;;;;;;;6.37;5.63;;;30.00;98.60;;;;;;5013036;28;20478;-91
2022/07/02 12:52:03;;;;;;;5.23;4.83;;;30.00;98.20;;;;;;5029793;28;20459;-89
2022/07/02 12:54:34;;;;;;;5.90;5.33;;;30.10;98.80;;;;;;5014668;28;20486;-92
2022/07/02 12:57:27;;;;;;;5.90;5.30;;;30.20;99.20;;;;;;5014293;28;20532;-91
2022/07/02 12:59:53;;;;;;;6.03;5.40;;;30.30;99.60;;;;;;5012844;28;20438;-89